Terminal Aerodrome Forecast
Issued by NWS Portland, OR

Home | Current Version | Previous Version | Text Only | Print | Product List | Glossary On
Versions: 1 2 3 4 5 6 7 8 9 10 11 12 13 14 15 16 17 18 19 20 21 22 23 24 25 26 27 28 29 30 31 32 33 34 35 36 37 38 39 40 41 42 43 44 45 46 47 48 49 50
000
FTUS46 KPQR 281124
TAFAST
TAF
KAST 281124Z 2812/2912 25010KT P6SM SCT015 BKN035 OVC050
      TEMPO 2812/2815 BKN015 OVC035
     FM281700 22009KT P6SM VCSH BKN050
     FM290400 20004KT P6SM SCT050 OVC100=

USA.gov is the U.S. government's official web portal to all federal, state and local government web resources and services.